createdAt,value
2022-09-04T00:02:34.076Z,1.00
2022-09-04T00:05:07.363Z,1.15
2022-09-04T00:07:40.674Z,0.90
2022-09-04T00:10:16.965Z,0.90
2022-09-04T00:12:50.016Z,0.90
2022-09-04T00:15:21.782Z,1.08
2022-09-04T00:17:57.494Z,1.13
2022-09-04T00:20:33.111Z,1.00
2022-09-04T00:23:06.182Z,1.10
2022-09-04T00:25:40.830Z,1.10
2022-09-04T00:28:16.232Z,0.93
2022-09-04T00:30:50.872Z,1.10
2022-09-04T00:33:27.913Z,1.20
2022-09-04T00:36:00.888Z,0.90
2022-09-04T00:38:39.675Z,1.00
2022-09-04T00:41:14.169Z,1.10
2022-09-04T00:44:04.715Z,0.70
2022-09-04T00:46:51.979Z,0.88
2022-09-04T00:49:36.453Z,1.23
2022-09-04T00:52:17.142Z,1.00
2022-09-04T00:54:58.537Z,1.10
2022-09-04T00:57:47.160Z,1.10
2022-09-04T01:00:16.894Z,1.20
2022-09-04T01:03:02.138Z,0.85
2022-09-04T01:05:45.683Z,1.00
2022-09-04T01:08:23.478Z,1.20
2022-09-04T01:11:06.202Z,1.10
2022-09-04T01:13:43.577Z,0.80
2022-09-04T01:16:17.247Z,1.00
2022-09-04T01:18:56.319Z,1.20
2022-09-04T01:22:08.006Z,0.98
2022-09-04T01:24:48.617Z,0.95
2022-09-04T01:27:25.135Z,0.90
2022-09-04T01:29:59.998Z,1.25
2022-09-04T01:32:36.273Z,0.98
2022-09-04T01:35:13.322Z,1.00
2022-09-04T01:37:49.022Z,0.90
2022-09-04T01:40:35.822Z,0.93
2022-09-04T01:43:08.629Z,1.00
2022-09-04T01:45:56.720Z,0.88
2022-09-04T01:48:36.935Z,1.02
2022-09-04T01:51:10.411Z,0.85
2022-09-04T01:53:43.198Z,1.10
2022-09-04T01:56:15.748Z,1.38
2022-09-04T01:58:49.246Z,1.10
2022-09-04T02:01:25.642Z,1.17
2022-09-04T02:04:01.499Z,1.00
2022-09-04T02:06:36.096Z,1.00
2022-09-04T02:09:23.592Z,1.15
2022-09-04T02:12:00.673Z,1.15
2022-09-04T02:14:40.558Z,1.33
2022-09-04T02:17:12.476Z,1.27
2022-09-04T02:20:04.512Z,1.15
2022-09-04T02:22:44.845Z,1.20
2022-09-04T02:25:24.240Z,1.00
2022-09-04T02:28:02.393Z,1.50
2022-09-04T02:30:37.633Z,1.02
2022-09-04T02:33:14.033Z,1.10
2022-09-04T02:35:49.516Z,1.05
2022-09-04T02:38:29.721Z,1.25
2022-09-04T02:41:01.790Z,1.15
2022-09-04T02:43:43.046Z,1.20
2022-09-04T02:46:19.502Z,1.60
2022-09-04T02:48:59.619Z,1.35
2022-09-04T02:51:47.355Z,1.13
2022-09-04T02:54:26.792Z,0.90
2022-09-04T02:57:05.668Z,1.40
2022-09-04T02:59:48.168Z,1.00
2022-09-04T03:02:24.651Z,1.25
2022-09-04T03:04:57.516Z,1.20
2022-09-04T03:07:31.556Z,1.08
2022-09-04T03:10:06.029Z,1.05
2022-09-04T03:12:40.391Z,1.35
2022-09-04T03:15:15.277Z,1.02
2022-09-04T03:17:50.727Z,1.48
2022-09-04T03:20:24.528Z,1.33
2022-09-04T03:22:58.512Z,1.20
2022-09-04T03:25:36.137Z,1.25
2022-09-04T03:28:03.803Z,1.25
2022-09-04T03:30:35.828Z,1.08
2022-09-04T03:33:14.620Z,1.02
2022-09-04T03:35:51.030Z,1.40
2022-09-04T03:38:25.134Z,1.67
2022-09-04T03:41:04.287Z,1.30
2022-09-04T03:43:48.647Z,0.85
2022-09-04T03:46:27.471Z,0.90
2022-09-04T03:49:09.636Z,1.00
2022-09-04T03:51:47.776Z,1.08
2022-09-04T03:54:30.023Z,1.48
2022-09-04T03:57:08.727Z,1.13
2022-09-04T03:59:49.844Z,1.10
2022-09-04T04:02:26.852Z,1.20
2022-09-04T04:05:24.890Z,1.23
2022-09-04T04:08:05.702Z,1.00
2022-09-04T04:10:46.328Z,1.15
2022-09-04T04:13:31.380Z,0.98
2022-09-04T04:16:10.965Z,1.08
2022-09-04T04:18:48.164Z,1.20
2022-09-04T04:21:29.663Z,1.20
2022-09-04T04:24:14.322Z,1.40
2022-09-04T04:26:55.011Z,1.00
2022-09-04T04:29:48.087Z,0.90
2022-09-04T04:32:28.530Z,1.33
2022-09-04T04:35:11.421Z,1.15
2022-09-04T04:37:51.886Z,1.10
2022-09-04T04:40:32.302Z,1.02
2022-09-04T04:43:06.373Z,1.13
2022-09-04T04:45:50.930Z,1.38
2022-09-04T04:48:51.303Z,1.17
2022-09-04T04:51:43.731Z,1.35
2022-09-04T04:54:52.583Z,0.90
2022-09-04T04:57:30.967Z,1.00
2022-09-04T05:00:07.824Z,1.27
2022-09-04T05:02:43.274Z,1.35
2022-09-04T05:05:18.628Z,1.05
2022-09-04T05:07:52.897Z,0.90
2022-09-04T05:10:31.577Z,1.10
2022-09-04T05:13:10.100Z,1.10
2022-09-04T05:16:07.399Z,1.05
2022-09-04T05:18:35.469Z,1.10
2022-09-04T05:21:12.494Z,1.23
2022-09-04T05:23:45.256Z,0.90
2022-09-04T05:26:25.105Z,1.17
2022-09-04T05:29:00.875Z,1.38
2022-09-04T05:31:38.574Z,1.10
2022-09-04T05:34:13.744Z,0.82
2022-09-04T05:36:52.379Z,1.30
2022-09-04T05:39:29.580Z,1.13
2022-09-04T05:42:16.494Z,1.00
2022-09-04T05:44:57.557Z,1.20
2022-09-04T05:47:38.259Z,1.10
2022-09-04T05:50:28.319Z,1.40
2022-09-04T05:53:11.103Z,1.13
2022-09-04T05:56:14.123Z,1.25
2022-09-04T05:58:59.620Z,1.42
2022-09-04T06:01:52.144Z,1.20
2022-09-04T06:04:38.474Z,1.23
2022-09-04T06:07:12.973Z,1.30
2022-09-04T06:09:54.389Z,1.23
2022-09-04T06:12:37.010Z,1.10
2022-09-04T06:15:17.138Z,1.30
2022-09-04T06:17:59.033Z,1.13
2022-09-04T06:20:39.985Z,1.30
2022-09-04T06:23:30.956Z,1.20
2022-09-04T06:26:26.002Z,1.25
2022-09-04T06:29:13.042Z,1.08
2022-09-04T06:32:06.186Z,1.10
2022-09-04T06:34:58.827Z,1.10
2022-09-04T06:37:38.179Z,1.20
2022-09-04T06:40:20.845Z,1.00
2022-09-04T06:43:04.145Z,1.27
2022-09-04T06:45:49.230Z,1.05
2022-09-04T06:48:29.635Z,1.25
2022-09-04T06:51:08.085Z,1.00
2022-09-04T06:53:42.646Z,1.17
2022-09-04T06:56:24.845Z,1.30
2022-09-04T06:59:14.599Z,3.45
2022-09-04T07:01:52.492Z,2.00
2022-09-04T07:04:35.449Z,1.77
2022-09-04T07:07:13.076Z,1.73
2022-09-04T07:09:45.689Z,1.77
2022-09-04T07:12:55.010Z,1.60
2022-09-04T07:15:40.138Z,1.40
2022-09-04T07:18:18.905Z,1.45
2022-09-04T07:20:56.936Z,1.33
2022-09-04T07:23:35.916Z,2.22
2022-09-04T07:26:14.032Z,1.70
2022-09-04T07:29:00.448Z,4.53
2022-09-04T07:31:34.720Z,2.35
2022-09-04T07:34:15.437Z,1.40
2022-09-04T07:36:53.947Z,1.55
2022-09-04T07:39:26.342Z,1.77
2022-09-04T07:42:01.672Z,1.80
2022-09-04T07:44:35.436Z,1.80
2022-09-04T07:47:13.502Z,1.83
2022-09-04T07:49:51.576Z,2.33
2022-09-04T07:52:36.618Z,3.47
2022-09-04T07:55:15.113Z,1.92
2022-09-04T07:58:08.885Z,4.13
2022-09-04T08:00:48.293Z,2.53
2022-09-04T08:03:32.087Z,2.05
2022-09-04T08:06:11.657Z,2.15
2022-09-04T08:08:59.845Z,2.20
2022-09-04T08:11:53.798Z,2.00
2022-09-04T08:14:30.372Z,2.00
2022-09-04T08:17:24.466Z,1.83
2022-09-04T08:20:02.407Z,2.25
2022-09-04T08:22:48.537Z,2.30
2022-09-04T08:25:29.609Z,2.58
2022-09-04T08:28:11.481Z,2.72
2022-09-04T08:30:47.791Z,2.63
2022-09-04T08:33:29.292Z,2.90
2022-09-04T08:36:03.113Z,2.00
2022-09-04T08:38:55.556Z,2.40
2022-09-04T08:42:01.061Z,2.20
2022-09-04T08:45:24.738Z,2.90
2022-09-04T08:48:38.078Z,2.33
2022-09-04T08:51:36.423Z,2.33
2022-09-04T08:54:36.111Z,2.83
2022-09-04T08:57:32.388Z,3.63
2022-09-04T09:00:09.802Z,3.00
2022-09-04T09:03:29.660Z,4.22
2022-09-04T09:06:12.889Z,3.78
2022-09-04T09:09:20.345Z,2.75
2022-09-04T09:12:16.908Z,2.80
2022-09-04T09:15:09.873Z,4.40
2022-09-04T09:17:39.773Z,4.07
2022-09-04T09:20:27.080Z,2.95
2022-09-04T09:23:18.295Z,2.80
2022-09-04T09:26:13.949Z,2.70
2022-09-04T09:29:14.490Z,3.10
2022-09-04T09:32:16.970Z,3.05
2022-09-04T09:35:37.106Z,2.85
2022-09-04T09:38:24.710Z,3.58
2022-09-04T09:41:37.278Z,2.75
2022-09-04T09:44:37.317Z,3.40
2022-09-04T09:47:40.508Z,2.83
2022-09-04T09:50:47.901Z,3.90
2022-09-04T09:53:50.645Z,3.50
2022-09-04T09:56:53.637Z,2.88
2022-09-04T10:00:06.930Z,2.85
2022-09-04T10:03:10.413Z,3.53
2022-09-04T10:06:02.915Z,3.20
2022-09-04T10:08:55.324Z,3.10
2022-09-04T10:11:42.475Z,2.72
2022-09-04T10:14:50.489Z,3.17
2022-09-04T10:17:55.804Z,2.22
2022-09-04T10:20:40.995Z,2.60
2022-09-04T10:23:43.446Z,2.40
2022-09-04T10:26:35.765Z,2.50
2022-09-04T10:29:23.417Z,2.30
2022-09-04T10:32:19.786Z,2.22
2022-09-04T10:35:19.311Z,2.38
2022-09-04T10:38:19.184Z,2.20
2022-09-04T10:41:15.775Z,2.28
2022-09-04T10:44:02.143Z,2.20
2022-09-04T10:46:40.722Z,2.03
2022-09-04T10:49:29.213Z,2.13
2022-09-04T10:52:39.572Z,2.10
2022-09-04T10:55:30.550Z,2.30
2022-09-04T10:58:17.872Z,2.40
2022-09-04T11:01:05.639Z,2.35
2022-09-04T11:04:13.804Z,2.25
2022-09-04T11:07:10.074Z,2.13
2022-09-04T11:09:59.780Z,2.38
2022-09-04T11:12:46.717Z,2.08
2022-09-04T11:15:47.986Z,2.30
2022-09-04T11:18:45.630Z,2.00
2022-09-04T11:21:56.013Z,2.30
2022-09-04T11:25:01.696Z,2.20
2022-09-04T11:28:04.411Z,2.30
2022-09-04T11:31:05.454Z,2.20
2022-09-04T11:34:23.047Z,2.20
2022-09-04T11:37:40.604Z,2.20
2022-09-04T11:40:33.857Z,2.28
2022-09-04T11:43:39.734Z,2.65
2022-09-04T11:46:38.758Z,2.10
2022-09-04T11:49:38.991Z,2.42
2022-09-04T11:52:26.400Z,2.22
2022-09-04T11:55:40.541Z,2.22
2022-09-04T11:58:36.636Z,2.60
2022-09-04T12:01:24.442Z,2.40
2022-09-04T12:04:22.973Z,2.63
2022-09-04T12:07:05.628Z,2.60
2022-09-04T12:09:55.649Z,2.10
2022-09-04T12:12:57.241Z,2.70
2022-09-04T12:15:56.164Z,2.67
2022-09-04T12:18:44.692Z,3.05
2022-09-04T12:21:58.478Z,2.13
2022-09-04T12:24:49.776Z,2.40
2022-09-04T12:27:49.343Z,2.15
2022-09-04T12:30:21.362Z,2.40
2022-09-04T12:33:26.259Z,2.25
2022-09-04T12:36:14.375Z,2.10
2022-09-04T12:39:26.089Z,2.47
2022-09-04T12:42:04.478Z,2.42
2022-09-04T12:44:48.219Z,2.05
2022-09-04T12:47:28.432Z,2.25
2022-09-04T12:50:16.890Z,2.40
2022-09-04T12:53:05.130Z,2.55
2022-09-04T12:55:41.571Z,3.08
2022-09-04T12:58:22.173Z,2.53
2022-09-04T13:01:00.403Z,2.63
2022-09-04T13:03:40.183Z,2.65
2022-09-04T13:06:27.317Z,2.08
2022-09-04T13:09:09.041Z,1.70
2022-09-04T13:11:56.648Z,2.25
2022-09-04T13:14:47.600Z,2.13
2022-09-04T13:17:26.097Z,2.25
2022-09-04T13:20:05.331Z,2.10
2022-09-04T13:22:55.122Z,2.50
2022-09-04T13:25:48.307Z,2.42
2022-09-04T13:28:26.723Z,2.05
2022-09-04T13:31:03.469Z,2.17
2022-09-04T13:33:49.273Z,2.22
2022-09-04T13:36:29.108Z,1.80
2022-09-04T13:39:24.643Z,2.20
2022-09-04T13:42:10.821Z,2.10
2022-09-04T13:44:59.131Z,1.95
2022-09-04T13:47:33.146Z,2.15
2022-09-04T13:50:10.038Z,2.00
2022-09-04T13:52:43.556Z,2.15
2022-09-04T13:55:17.912Z,3.05
2022-09-04T13:57:50.034Z,2.92
2022-09-04T14:00:18.117Z,2.33
2022-09-04T14:02:56.545Z,2.30
2022-09-04T14:05:26.069Z,2.40
2022-09-04T14:08:02.280Z,3.10
2022-09-04T14:10:43.199Z,2.75
2022-09-04T14:13:22.757Z,2.53
2022-09-04T14:16:03.882Z,2.17
2022-09-04T14:18:46.908Z,2.03
2022-09-04T14:21:28.157Z,2.20
2022-09-04T14:24:05.690Z,2.03
2022-09-04T14:26:49.717Z,2.20
2022-09-04T14:29:28.441Z,2.17
2022-09-04T14:32:05.882Z,2.25
2022-09-04T14:34:46.886Z,2.83
2022-09-04T14:37:28.627Z,2.00
2022-09-04T14:40:02.397Z,1.98
2022-09-04T14:42:46.465Z,2.25
2022-09-04T14:45:42.204Z,2.08
2022-09-04T14:48:18.247Z,1.90
2022-09-04T14:50:58.757Z,2.00
2022-09-04T14:53:33.899Z,2.30
2022-09-04T14:56:21.271Z,2.30
2022-09-04T14:58:56.093Z,3.25
2022-09-04T15:01:26.837Z,2.13
2022-09-04T15:04:12.600Z,2.08
2022-09-04T15:07:10.407Z,1.88
2022-09-04T15:09:42.834Z,1.98
2022-09-04T15:12:27.117Z,2.03
2022-09-04T15:15:04.587Z,2.30
2022-09-04T15:17:38.061Z,1.80
2022-09-04T15:20:13.402Z,2.42
2022-09-04T15:22:50.883Z,2.20
2022-09-04T15:25:57.630Z,2.00
2022-09-04T15:28:38.712Z,2.15
2022-09-04T15:31:16.254Z,2.30
2022-09-04T15:33:48.248Z,2.05
2022-09-04T15:36:21.011Z,2.38
2022-09-04T15:38:54.499Z,2.30
2022-09-04T15:41:28.205Z,1.88
2022-09-04T15:44:02.213Z,1.83
2022-09-04T15:46:49.605Z,2.15
2022-09-04T15:49:26.336Z,1.90
2022-09-04T15:51:58.972Z,2.42
2022-09-04T15:54:36.244Z,1.90
2022-09-04T15:57:12.464Z,1.90
2022-09-04T15:59:52.148Z,2.40
2022-09-04T16:02:36.421Z,2.22
2022-09-04T16:05:23.697Z,2.42
2022-09-04T16:08:03.850Z,3.40
2022-09-04T16:11:04.892Z,2.30
2022-09-04T16:13:52.013Z,2.33
2022-09-04T16:16:28.019Z,2.60
2022-09-04T16:19:21.844Z,2.50
2022-09-04T16:21:55.155Z,2.60
2022-09-04T16:24:30.396Z,2.40
2022-09-04T16:27:00.526Z,2.38
2022-09-04T16:29:36.553Z,2.38
2022-09-04T16:32:09.671Z,2.45
2022-09-04T16:34:44.341Z,2.70
2022-09-04T16:37:19.186Z,2.92
2022-09-04T16:39:57.414Z,2.88
2022-09-04T16:42:32.212Z,2.05
2022-09-04T16:45:06.047Z,2.60
2022-09-04T16:47:44.535Z,2.30
2022-09-04T16:50:23.582Z,2.20
2022-09-04T16:53:13.102Z,2.92
2022-09-04T16:55:47.817Z,2.53
2022-09-04T16:58:40.020Z,2.40
2022-09-04T17:01:16.557Z,2.58
2022-09-04T17:04:12.483Z,1.98
2022-09-04T17:06:56.234Z,2.17
2022-09-04T17:09:29.226Z,2.38
2022-09-04T17:11:59.656Z,2.60
2022-09-04T17:14:35.117Z,2.03
2022-09-04T17:17:18.407Z,2.00
2022-09-04T17:20:04.338Z,2.67
2022-09-04T17:28:59.981Z,2.67
2022-09-04T17:29:01.179Z,4.20
2022-09-04T17:29:11.495Z,2.38
2022-09-04T17:31:45.614Z,2.60
2022-09-04T17:40:32.263Z,2.67
2022-09-04T17:40:47.770Z,2.42
2022-09-04T17:40:50.973Z,2.50
2022-09-04T17:43:22.303Z,3.08
2022-09-04T17:46:02.266Z,2.60
2022-09-04T17:48:34.280Z,2.50
2022-09-04T17:51:05.166Z,2.83
2022-09-04T17:53:38.266Z,2.83
2022-09-04T17:56:13.563Z,3.00
2022-09-04T17:58:44.561Z,2.92
2022-09-04T18:01:21.838Z,2.85
2022-09-04T18:04:22.568Z,3.10
2022-09-04T18:06:58.735Z,3.58
2022-09-04T18:09:33.017Z,2.90
2022-09-04T18:12:11.076Z,2.78
2022-09-04T18:14:45.261Z,2.80
2022-09-04T18:17:21.022Z,2.97
2022-09-04T18:19:57.065Z,3.22
2022-09-04T18:22:31.947Z,2.97
2022-09-04T18:25:16.446Z,3.13
2022-09-04T18:28:09.622Z,2.90
2022-09-04T18:37:09.478Z,3.25
2022-09-04T18:37:25.319Z,2.63
2022-09-04T18:37:25.323Z,3.03
2022-09-04T18:39:38.473Z,3.63
2022-09-04T18:45:57.820Z,3.15
2022-09-04T18:50:21.703Z,3.40
2022-09-04T18:50:28.926Z,2.92
2022-09-04T18:51:21.303Z,3.78
2022-09-04T18:53:54.244Z,4.70
2022-09-04T18:56:27.359Z,3.55
2022-09-04T18:59:01.278Z,3.58
2022-09-04T19:01:35.408Z,3.45
2022-09-04T19:04:32.906Z,3.25
2022-09-04T19:07:07.789Z,3.10
2022-09-04T19:09:56.037Z,3.30
2022-09-04T19:12:35.707Z,3.00
2022-09-04T19:15:30.659Z,3.40
2022-09-04T19:18:10.788Z,3.15
2022-09-04T19:20:47.327Z,3.20
2022-09-04T19:23:24.079Z,3.38
2022-09-04T19:25:55.575Z,3.17
2022-09-04T19:28:28.261Z,3.30
2022-09-04T19:31:02.896Z,3.40
2022-09-04T19:33:39.011Z,3.22
2022-09-04T19:36:12.521Z,3.47
2022-09-04T19:45:54.335Z,3.30
2022-09-04T19:46:08.158Z,3.10
2022-09-04T19:46:11.592Z,3.50
2022-09-04T19:47:27.127Z,3.50
2022-09-04T19:53:02.109Z,3.30
2022-09-04T19:53:32.969Z,3.20
2022-09-04T19:55:47.287Z,3.28
2022-09-04T19:58:21.082Z,3.10
2022-09-04T20:00:55.488Z,3.05
2022-09-04T20:03:30.136Z,3.25
2022-09-04T20:06:19.829Z,2.78
2022-09-04T20:08:52.993Z,3.10
2022-09-04T20:11:32.459Z,3.10
2022-09-04T20:14:14.426Z,3.40
2022-09-04T20:16:56.249Z,3.15
2022-09-04T20:19:28.858Z,3.00
2022-09-04T20:22:01.876Z,2.95
2022-09-04T20:24:37.434Z,3.20
2022-09-04T20:27:15.513Z,3.22
2022-09-04T20:29:54.647Z,3.55
2022-09-04T20:32:27.339Z,4.53
2022-09-04T20:35:12.944Z,2.97
2022-09-04T20:37:53.546Z,3.13
2022-09-04T20:40:31.148Z,3.47
2022-09-04T20:43:16.980Z,3.08
2022-09-04T20:52:09.142Z,3.28
2022-09-04T20:52:54.741Z,3.58
2022-09-04T20:52:55.061Z,3.28
2022-09-04T20:54:53.204Z,3.35
2022-09-04T21:01:52.954Z,3.15
2022-09-04T21:03:12.721Z,3.30
2022-09-04T21:03:32.407Z,3.00
2022-09-04T21:06:13.177Z,3.30
2022-09-04T21:08:51.292Z,2.58
2022-09-04T21:11:38.853Z,3.30
2022-09-04T21:14:14.385Z,3.28
2022-09-04T21:17:01.983Z,2.70
2022-09-04T21:19:49.835Z,2.55
2022-09-04T21:22:33.891Z,2.90
2022-09-04T21:25:28.032Z,2.75
2022-09-04T21:28:20.260Z,2.83
2022-09-04T21:31:06.641Z,2.72
2022-09-04T21:33:43.458Z,2.60
2022-09-04T21:36:27.484Z,2.92
2022-09-04T21:39:28.564Z,2.72
2022-09-04T21:42:11.329Z,2.35
2022-09-04T21:45:11.089Z,2.53
2022-09-04T21:47:58.488Z,3.00
2022-09-04T21:50:55.554Z,2.47
2022-09-04T21:54:37.586Z,2.55
2022-09-04T22:02:31.820Z,2.30
2022-09-04T22:02:46.080Z,2.70
2022-09-04T22:03:30.053Z,2.30
2022-09-04T22:06:09.908Z,2.30
2022-09-04T22:13:26.184Z,2.33
2022-09-04T22:13:38.391Z,2.10
2022-09-04T22:15:11.161Z,2.20
2022-09-04T22:18:05.036Z,2.47
2022-09-04T22:20:54.893Z,2.17
2022-09-04T22:24:11.329Z,1.90
2022-09-04T22:27:02.069Z,2.25
2022-09-04T22:29:47.621Z,1.90
2022-09-04T22:32:54.732Z,2.35
2022-09-04T22:36:06.645Z,2.55
2022-09-04T22:38:54.708Z,2.58
2022-09-04T22:41:39.004Z,2.00
2022-09-04T22:44:20.812Z,2.08
2022-09-04T22:47:27.917Z,1.80
2022-09-04T22:50:16.397Z,1.75
2022-09-04T22:53:05.446Z,2.22
2022-09-04T22:56:06.598Z,2.38
2022-09-04T22:58:55.799Z,1.92
2022-09-04T23:02:20.393Z,2.08
2022-09-04T23:05:04.684Z,2.00
2022-09-04T23:13:43.928Z,2.30
2022-09-04T23:14:00.696Z,2.10
2022-09-04T23:14:21.954Z,1.95
2022-09-04T23:17:15.090Z,2.30
2022-09-04T23:26:36.127Z,2.13
2022-09-04T23:26:42.223Z,2.42
2022-09-04T23:26:49.608Z,2.22
2022-09-04T23:29:41.261Z,2.10
2022-09-04T23:32:31.535Z,2.30
2022-09-04T23:35:16.497Z,1.98
2022-09-04T23:38:05.180Z,2.20
2022-09-04T23:40:39.213Z,2.60
2022-09-04T23:43:38.575Z,1.90
2022-09-04T23:46:38.832Z,2.10
2022-09-04T23:49:35.880Z,2.20
2022-09-04T23:52:12.961Z,2.45
2022-09-04T23:55:20.188Z,2.00
2022-09-04T23:57:56.283Z,2.03
